sensor_id;sensor_type;location;lat;lon;timestamp;pressure;altitude;pressure_sealevel;temperature;humidity
65157;BME280;52745;49.794;18.258;2022-08-21T00:01:13;98457.41;;;19.51;100.00
65157;BME280;52745;49.794;18.258;2022-08-21T00:03:41;98449.91;;;19.48;100.00
65157;BME280;52745;49.794;18.258;2022-08-21T00:06:08;98453.44;;;19.49;100.00
65157;BME280;52745;49.794;18.258;2022-08-21T00:08:34;98440.38;;;19.51;100.00
65157;BME280;52745;49.794;18.258;2022-08-21T00:11:03;98434.28;;;19.45;100.00
65157;BME280;52745;49.794;18.258;2022-08-21T00:13:30;98427.69;;;19.37;100.00
65157;BME280;52745;49.794;18.258;2022-08-21T00:15:57;98423.66;;;19.35;100.00
65157;BME280;52745;49.794;18.258;2022-08-21T00:18:25;98417.72;;;19.47;100.00
65157;BME280;52745;49.794;18.258;2022-08-21T00:20:52;98411.69;;;19.50;100.00
65157;BME280;52745;49.794;18.258;2022-08-21T00:23:18;98407.06;;;19.50;100.00
65157;BME280;52745;49.794;18.258;2022-08-21T00:25:45;98405.34;;;19.54;100.00
65157;BME280;52745;49.794;18.258;2022-08-21T00:28:13;98399.56;;;19.47;100.00
65157;BME280;52745;49.794;18.258;2022-08-21T00:30:40;98402.63;;;19.32;100.00
65157;BME280;52745;49.794;18.258;2022-08-21T00:33:08;98387.59;;;19.39;100.00
65157;BME280;52745;49.794;18.258;2022-08-21T00:35:37;98387.63;;;19.26;100.00
65157;BME280;52745;49.794;18.258;2022-08-21T00:38:05;98389.88;;;19.10;100.00
65157;BME280;52745;49.794;18.258;2022-08-21T00:40:37;98392.69;;;19.05;100.00
65157;BME280;52745;49.794;18.258;2022-08-21T00:43:05;98398.50;;;19.12;100.00
65157;BME280;52745;49.794;18.258;2022-08-21T00:45:33;98408.59;;;19.20;100.00
65157;BME280;52745;49.794;18.258;2022-08-21T00:48:00;98394.81;;;19.30;100.00
65157;BME280;52745;49.794;18.258;2022-08-21T00:50:29;98376.69;;;19.31;100.00
65157;BME280;52745;49.794;18.258;2022-08-21T00:52:59;98368.94;;;19.15;100.00
65157;BME280;52745;49.794;18.258;2022-08-21T00:55:27;98373.44;;;19.06;100.00
65157;BME280;52745;49.794;18.258;2022-08-21T00:57:57;98369.66;;;19.07;100.00
65157;BME280;52745;49.794;18.258;2022-08-21T01:00:29;98370.25;;;19.04;100.00
65157;BME280;52745;49.794;18.258;2022-08-21T01:02:58;98362.75;;;19.01;100.00
65157;BME280;52745;49.794;18.258;2022-08-21T01:05:25;98365.81;;;19.08;100.00
65157;BME280;52745;49.794;18.258;2022-08-21T01:07:54;98367.59;;;19.27;100.00
65157;BME280;52745;49.794;18.258;2022-08-21T01:10:23;98361.75;;;19.33;100.00
65157;BME280;52745;49.794;18.258;2022-08-21T01:12:52;98357.31;;;19.37;100.00
65157;BME280;52745;49.794;18.258;2022-08-21T01:15:22;98349.13;;;19.29;100.00
65157;BME280;52745;49.794;18.258;2022-08-21T01:17:50;98347.72;;;19.31;100.00
65157;BME280;52745;49.794;18.258;2022-08-21T01:20:17;98347.53;;;19.28;100.00
65157;BME280;52745;49.794;18.258;2022-08-21T01:22:43;98347.84;;;19.26;100.00
65157;BME280;52745;49.794;18.258;2022-08-21T01:25:14;98342.97;;;19.37;100.00
65157;BME280;52745;49.794;18.258;2022-08-21T01:27:41;98346.38;;;19.42;100.00
65157;BME280;52745;49.794;18.258;2022-08-21T01:30:21;98346.16;;;19.39;100.00
65157;BME280;52745;49.794;18.258;2022-08-21T01:32:49;98346.66;;;19.41;100.00
65157;BME280;52745;49.794;18.258;2022-08-21T01:35:18;98340.66;;;19.44;100.00
65157;BME280;52745;49.794;18.258;2022-08-21T01:37:45;98347.84;;;19.49;100.00
65157;BME280;52745;49.794;18.258;2022-08-21T01:40:14;98346.78;;;19.58;100.00
65157;BME280;52745;49.794;18.258;2022-08-21T01:42:43;98341.06;;;19.60;100.00
65157;BME280;52745;49.794;18.258;2022-08-21T01:45:10;98339.78;;;19.57;100.00
65157;BME280;52745;49.794;18.258;2022-08-21T01:47:37;98352.28;;;19.44;100.00
65157;BME280;52745;49.794;18.258;2022-08-21T01:50:10;98337.19;;;19.52;100.00
65157;BME280;52745;49.794;18.258;2022-08-21T01:52:38;98320.00;;;19.57;100.00
65157;BME280;52745;49.794;18.258;2022-08-21T01:55:06;98327.69;;;19.63;100.00
65157;BME280;52745;49.794;18.258;2022-08-21T01:57:32;98319.06;;;19.61;100.00
65157;BME280;52745;49.794;18.258;2022-08-21T01:59:59;98317.84;;;19.68;100.00
65157;BME280;52745;49.794;18.258;2022-08-21T02:02:26;98320.06;;;19.65;100.00
65157;BME280;52745;49.794;18.258;2022-08-21T02:04:53;98300.00;;;19.67;100.00
65157;BME280;52745;49.794;18.258;2022-08-21T02:07:19;98298.69;;;19.55;100.00
65157;BME280;52745;49.794;18.258;2022-08-21T02:09:46;98294.13;;;19.42;100.00
65157;BME280;52745;49.794;18.258;2022-08-21T02:12:12;98284.34;;;19.32;100.00
65157;BME280;52745;49.794;18.258;2022-08-21T02:14:39;98287.13;;;19.18;100.00
65157;BME280;52745;49.794;18.258;2022-08-21T02:17:05;98297.53;;;19.25;100.00
65157;BME280;52745;49.794;18.258;2022-08-21T02:19:32;98292.75;;;19.22;100.00
65157;BME280;52745;49.794;18.258;2022-08-21T02:21:58;98294.88;;;19.11;100.00
65157;BME280;52745;49.794;18.258;2022-08-21T02:24:25;98295.13;;;19.01;100.00
65157;BME280;52745;49.794;18.258;2022-08-21T02:26:51;98300.53;;;19.01;100.00
65157;BME280;52745;49.794;18.258;2022-08-21T02:29:18;98293.09;;;19.07;100.00
65157;BME280;52745;49.794;18.258;2022-08-21T02:31:44;98289.56;;;19.06;100.00
65157;BME280;52745;49.794;18.258;2022-08-21T02:34:11;98296.59;;;19.07;100.00
65157;BME280;52745;49.794;18.258;2022-08-21T02:36:37;98294.88;;;19.11;100.00
65157;BME280;52745;49.794;18.258;2022-08-21T02:39:04;98297.09;;;19.09;100.00
65157;BME280;52745;49.794;18.258;2022-08-21T02:41:30;98289.56;;;19.06;100.00
65157;BME280;52745;49.794;18.258;2022-08-21T02:43:58;98285.09;;;19.01;100.00
65157;BME280;52745;49.794;18.258;2022-08-21T02:46:24;98288.13;;;19.00;100.00
65157;BME280;52745;49.794;18.258;2022-08-21T02:48:51;98295.75;;;18.98;100.00
65157;BME280;52745;49.794;18.258;2022-08-21T02:51:19;98290.13;;;18.94;100.00
65157;BME280;52745;49.794;18.258;2022-08-21T02:53:47;98289.97;;;18.91;100.00
65157;BME280;52745;49.794;18.258;2022-08-21T02:56:17;98279.72;;;18.88;100.00
65157;BME280;52745;49.794;18.258;2022-08-21T02:58:47;98287.34;;;18.86;100.00
65157;BME280;52745;49.794;18.258;2022-08-21T03:01:15;98290.69;;;18.83;100.00
65157;BME280;52745;49.794;18.258;2022-08-21T03:03:43;98286.75;;;18.89;100.00
65157;BME280;52745;49.794;18.258;2022-08-21T03:06:13;98281.16;;;18.85;100.00
65157;BME280;52745;49.794;18.258;2022-08-21T03:08:39;98277.28;;;18.77;100.00
65157;BME280;52745;49.794;18.258;2022-08-21T03:11:06;98281.66;;;18.73;100.00
65157;BME280;52745;49.794;18.258;2022-08-21T03:13:33;98286.56;;;18.71;100.00
65157;BME280;52745;49.794;18.258;2022-08-21T03:15:59;98285.78;;;18.71;100.00
65157;BME280;52745;49.794;18.258;2022-08-21T03:18:26;98289.16;;;18.76;100.00
65157;BME280;52745;49.794;18.258;2022-08-21T03:20:52;98292.47;;;18.73;100.00
65157;BME280;52745;49.794;18.258;2022-08-21T03:23:19;98294.69;;;18.71;100.00
65157;BME280;52745;49.794;18.258;2022-08-21T03:25:47;98301.88;;;18.76;100.00
65157;BME280;52745;49.794;18.258;2022-08-21T03:28:18;98307.81;;;18.78;100.00
65157;BME280;52745;49.794;18.258;2022-08-21T03:30:47;98313.50;;;18.76;100.00
65157;BME280;52745;49.794;18.258;2022-08-21T03:33:15;98329.22;;;18.74;100.00
65157;BME280;52745;49.794;18.258;2022-08-21T03:35:44;98336.78;;;18.77;100.00
65157;BME280;52745;49.794;18.258;2022-08-21T03:38:12;98340.03;;;18.74;100.00
65157;BME280;52745;49.794;18.258;2022-08-21T03:40:41;98361.16;;;18.72;100.00
65157;BME280;52745;49.794;18.258;2022-08-21T03:43:07;98374.50;;;18.69;100.00
65157;BME280;52745;49.794;18.258;2022-08-21T03:45:35;98377.41;;;18.45;100.00
65157;BME280;52745;49.794;18.258;2022-08-21T03:48:03;98381.06;;;17.93;100.00
65157;BME280;52745;49.794;18.258;2022-08-21T03:50:34;98369.75;;;17.58;100.00
65157;BME280;52745;49.794;18.258;2022-08-21T03:53:01;98373.72;;;17.28;100.00
65157;BME280;52745;49.794;18.258;2022-08-21T03:55:28;98373.75;;;17.09;100.00
65157;BME280;52745;49.794;18.258;2022-08-21T03:57:55;98385.09;;;17.06;100.00
65157;BME280;52745;49.794;18.258;2022-08-21T04:00:23;98383.13;;;16.93;100.00
65157;BME280;52745;49.794;18.258;2022-08-21T04:02:49;98378.09;;;16.86;100.00
65157;BME280;52745;49.794;18.258;2022-08-21T04:05:17;98395.81;;;16.92;100.00
65157;BME280;52745;49.794;18.258;2022-08-21T04:07:54;98401.06;;;17.03;100.00
65157;BME280;52745;49.794;18.258;2022-08-21T04:10:22;98397.56;;;17.21;100.00
65157;BME280;52745;49.794;18.258;2022-08-21T04:12:51;98405.81;;;17.30;100.00
65157;BME280;52745;49.794;18.258;2022-08-21T04:15:18;98392.53;;;17.14;100.00
65157;BME280;52745;49.794;18.258;2022-08-21T04:17:45;98376.72;;;17.08;100.00
65157;BME280;52745;49.794;18.258;2022-08-21T04:20:11;98357.09;;;17.02;100.00
65157;BME280;52745;49.794;18.258;2022-08-21T04:22:38;98371.25;;;16.94;100.00
65157;BME280;52745;49.794;18.258;2022-08-21T04:25:05;98368.19;;;16.82;100.00
65157;BME280;52745;49.794;18.258;2022-08-21T04:27:34;98378.84;;;16.92;100.00
65157;BME280;52745;49.794;18.258;2022-08-21T04:30:00;98371.25;;;16.94;100.00
65157;BME280;52745;49.794;18.258;2022-08-21T04:32:27;98371.78;;;16.96;100.00
65157;BME280;52745;49.794;18.258;2022-08-21T04:35:01;98367.03;;;16.88;100.00
65157;BME280;52745;49.794;18.258;2022-08-21T04:37:30;98368.63;;;16.89;100.00
65157;BME280;52745;49.794;18.258;2022-08-21T04:39:57;98363.72;;;16.91;100.00
65157;BME280;52745;49.794;18.258;2022-08-21T04:42:25;98364.25;;;16.93;100.00
65157;BME280;52745;49.794;18.258;2022-08-21T04:44:52;98369.44;;;16.89;100.00
65157;BME280;52745;49.794;18.258;2022-08-21T04:47:19;98380.94;;;16.95;100.00
65157;BME280;52745;49.794;18.258;2022-08-21T04:49:45;98377.59;;;17.03;100.00
65157;BME280;52745;49.794;18.258;2022-08-21T04:52:15;98379.56;;;17.16;100.00
65157;BME280;52745;49.794;18.258;2022-08-21T04:54:44;98377.38;;;17.19;100.00
65157;BME280;52745;49.794;18.258;2022-08-21T04:57:12;98372.41;;;17.26;100.00
65157;BME280;52745;49.794;18.258;2022-08-21T04:59:47;98380.94;;;17.33;100.00
65157;BME280;52745;49.794;18.258;2022-08-21T05:02:14;98369.09;;;17.48;100.00
65157;BME280;52745;49.794;18.258;2022-08-21T05:04:44;98384.94;;;17.54;100.00
65157;BME280;52745;49.794;18.258;2022-08-21T05:07:16;98380.44;;;17.64;100.00
65157;BME280;52745;49.794;18.258;2022-08-21T05:09:44;98375.97;;;17.73;100.00
65157;BME280;52745;49.794;18.258;2022-08-21T05:12:11;98372.34;;;17.83;100.00
65157;BME280;52745;49.794;18.258;2022-08-21T05:14:38;98383.06;;;17.88;100.00
65157;BME280;52745;49.794;18.258;2022-08-21T05:17:04;98380.47;;;17.96;100.00
65157;BME280;52745;49.794;18.258;2022-08-21T05:19:31;98390.09;;;18.03;100.00
65157;BME280;52745;49.794;18.258;2022-08-21T05:21:57;98385.59;;;18.12;100.00
65157;BME280;52745;49.794;18.258;2022-08-21T05:24:24;98388.69;;;18.19;100.00
65157;BME280;52745;49.794;18.258;2022-08-21T05:26:51;98391.00;;;18.12;100.00
65157;BME280;52745;49.794;18.258;2022-08-21T05:29:17;98387.38;;;18.03;100.00
65157;BME280;52745;49.794;18.258;2022-08-21T05:31:44;98392.53;;;18.18;100.00
65157;BME280;52745;49.794;18.258;2022-08-21T05:34:12;98395.78;;;18.15;100.00
65157;BME280;52745;49.794;18.258;2022-08-21T05:36:38;98399.72;;;18.09;100.00
65157;BME280;52745;49.794;18.258;2022-08-21T05:39:05;98401.72;;;18.17;100.00
65157;BME280;52745;49.794;18.258;2022-08-21T05:41:32;98406.72;;;18.24;100.00
65157;BME280;52745;49.794;18.258;2022-08-21T05:43:58;98409.22;;;18.20;100.00
65157;BME280;52745;49.794;18.258;2022-08-21T05:46:25;98403.31;;;18.18;100.00
65157;BME280;52745;49.794;18.258;2022-08-21T05:48:52;98408.91;;;18.08;100.00
65157;BME280;52745;49.794;18.258;2022-08-21T05:51:19;98408.09;;;18.07;100.00
65157;BME280;52745;49.794;18.258;2022-08-21T05:53:46;98402.69;;;17.93;100.00
65157;BME280;52745;49.794;18.258;2022-08-21T05:56:13;98407.06;;;17.89;100.00
65157;BME280;52745;49.794;18.258;2022-08-21T05:58:39;98414.47;;;17.97;100.00
65157;BME280;52745;49.794;18.258;2022-08-21T06:01:06;98422.06;;;17.95;100.00
65157;BME280;52745;49.794;18.258;2022-08-21T06:03:38;98424.66;;;17.87;100.00
65157;BME280;52745;49.794;18.258;2022-08-21T06:06:04;98419.28;;;17.87;100.00
65157;BME280;52745;49.794;18.258;2022-08-21T06:08:32;98411.22;;;17.82;100.00
65157;BME280;52745;49.794;18.258;2022-08-21T06:11:00;98418.44;;;17.86;100.00
65157;BME280;52745;49.794;18.258;2022-08-21T06:13:27;98418.59;;;17.76;100.00
65157;BME280;52745;49.794;18.258;2022-08-21T06:16:09;98423.34;;;17.84;100.00
65157;BME280;52745;49.794;18.258;2022-08-21T06:18:36;98433.19;;;17.75;100.00
65157;BME280;52745;49.794;18.258;2022-08-21T06:21:04;98433.50;;;17.73;100.00
65157;BME280;52745;49.794;18.258;2022-08-21T06:23:32;98441.59;;;17.73;100.00
65157;BME280;52745;49.794;18.258;2022-08-21T06:25:59;98440.44;;;17.61;100.00
65157;BME280;52745;49.794;18.258;2022-08-21T06:28:26;98436.44;;;18.24;100.00
65157;BME280;52745;49.794;18.258;2022-08-21T06:30:53;98437.00;;;18.81;100.00
65157;BME280;52745;49.794;18.258;2022-08-21T06:33:19;98429.03;;;19.26;96.72
65157;BME280;52745;49.794;18.258;2022-08-21T06:35:46;98433.44;;;19.08;96.07
65157;BME280;52745;49.794;18.258;2022-08-21T06:38:12;98438.41;;;18.78;98.18
65157;BME280;52745;49.794;18.258;2022-08-21T06:40:39;98431.78;;;18.71;99.32
65157;BME280;52745;49.794;18.258;2022-08-21T06:43:10;98431.66;;;18.48;99.78
65157;BME280;52745;49.794;18.258;2022-08-21T06:45:37;98422.13;;;19.06;98.00
65157;BME280;52745;49.794;18.258;2022-08-21T06:48:04;98411.81;;;19.44;94.71
65157;BME280;52745;49.794;18.258;2022-08-21T06:50:34;98417.19;;;19.58;92.12
65157;BME280;52745;49.794;18.258;2022-08-21T06:53:09;98432.69;;;19.44;91.57
65157;BME280;52745;49.794;18.258;2022-08-21T06:55:38;98441.88;;;19.20;94.51
65157;BME280;52745;49.794;18.258;2022-08-21T06:58:05;98436.47;;;19.43;92.38
65157;BME280;52745;49.794;18.258;2022-08-21T07:00:32;98428.00;;;19.58;91.95
65157;BME280;52745;49.794;18.258;2022-08-21T07:02:59;98429.78;;;19.63;92.07
65157;BME280;52745;49.794;18.258;2022-08-21T07:05:27;98435.84;;;19.23;93.13
65157;BME280;52745;49.794;18.258;2022-08-21T07:07:54;98433.28;;;19.05;94.37
65157;BME280;52745;49.794;18.258;2022-08-21T07:10:21;98435.28;;;18.99;95.81
65157;BME280;52745;49.794;18.258;2022-08-21T07:12:48;98448.53;;;19.37;93.11
65157;BME280;52745;49.794;18.258;2022-08-21T07:15:14;98442.75;;;19.30;93.61
65157;BME280;52745;49.794;18.258;2022-08-21T07:17:41;98443.63;;;19.61;93.12
65157;BME280;52745;49.794;18.258;2022-08-21T07:20:08;98442.03;;;19.38;93.24
65157;BME280;52745;49.794;18.258;2022-08-21T07:22:35;98456.59;;;19.87;91.42
65157;BME280;52745;49.794;18.258;2022-08-21T07:25:05;98456.84;;;19.99;90.05
65157;BME280;52745;49.794;18.258;2022-08-21T07:27:32;98458.22;;;19.15;93.98
65157;BME280;52745;49.794;18.258;2022-08-21T07:29:58;98466.03;;;18.75;97.22
65157;BME280;52745;49.794;18.258;2022-08-21T07:32:25;98467.41;;;19.14;96.16
65157;BME280;52745;49.794;18.258;2022-08-21T07:34:51;98474.22;;;19.26;93.48
65157;BME280;52745;49.794;18.258;2022-08-21T07:37:18;98479.56;;;19.03;94.60
65157;BME280;52745;49.794;18.258;2022-08-21T07:39:45;98477.38;;;18.77;97.10
65157;BME280;52745;49.794;18.258;2022-08-21T07:42:15;98475.63;;;18.54;97.64
65157;BME280;52745;49.794;18.258;2022-08-21T07:44:42;98479.88;;;18.27;98.62
65157;BME280;52745;49.794;18.258;2022-08-21T07:47:09;98488.25;;;18.12;100.00
65157;BME280;52745;49.794;18.258;2022-08-21T07:49:36;98487.47;;;17.92;100.00
65157;BME280;52745;49.794;18.258;2022-08-21T07:52:03;98486.59;;;17.78;100.00
65157;BME280;52745;49.794;18.258;2022-08-21T07:54:29;98483.69;;;17.74;100.00
65157;BME280;52745;49.794;18.258;2022-08-21T07:56:56;98481.22;;;17.78;100.00
65157;BME280;52745;49.794;18.258;2022-08-21T07:59:22;98487.84;;;17.86;100.00
65157;BME280;52745;49.794;18.258;2022-08-21T08:01:49;98487.06;;;17.85;100.00
65157;BME280;52745;49.794;18.258;2022-08-21T08:04:15;98491.03;;;17.69;100.00
65157;BME280;52745;49.794;18.258;2022-08-21T08:06:42;98480.13;;;17.60;100.00
65157;BME280;52745;49.794;18.258;2022-08-21T08:09:08;98482.31;;;17.58;100.00
65157;BME280;52745;49.794;18.258;2022-08-21T08:11:37;98483.53;;;17.66;100.00
65157;BME280;52745;49.794;18.258;2022-08-21T08:14:05;98474.28;;;17.53;100.00
65157;BME280;52745;49.794;18.258;2022-08-21T08:16:32;98477.91;;;17.62;100.00
65157;BME280;52745;49.794;18.258;2022-08-21T08:18:58;98478.50;;;17.59;100.00
65157;BME280;52745;49.794;18.258;2022-08-21T08:21:25;98475.09;;;17.53;100.00
65157;BME280;52745;49.794;18.258;2022-08-21T08:23:53;98472.09;;;17.55;100.00
65157;BME280;52745;49.794;18.258;2022-08-21T08:26:19;98472.88;;;17.55;100.00
65157;BME280;52745;49.794;18.258;2022-08-21T08:28:46;98479.16;;;17.51;100.00
65157;BME280;52745;49.794;18.258;2022-08-21T08:31:14;98469.34;;;17.60;100.00
65157;BME280;52745;49.794;18.258;2022-08-21T08:33:40;98477.56;;;17.88;100.00
65157;BME280;52745;49.794;18.258;2022-08-21T08:36:14;98473.88;;;17.97;100.00
65157;BME280;52745;49.794;18.258;2022-08-21T08:38:41;98464.72;;;18.12;100.00
65157;BME280;52745;49.794;18.258;2022-08-21T08:41:16;98470.47;;;18.25;100.00
65157;BME280;52745;49.794;18.258;2022-08-21T08:43:52;98467.31;;;18.50;100.00
65157;BME280;52745;49.794;18.258;2022-08-21T08:49:33;98459.34;;;18.87;97.60
65157;BME280;52745;49.794;18.258;2022-08-21T08:52:10;98470.84;;;19.06;98.71
65157;BME280;52745;49.794;18.258;2022-08-21T08:54:44;98481.25;;;18.99;96.45
65157;BME280;52745;49.794;18.258;2022-08-21T08:57:20;98479.28;;;18.91;98.12
65157;BME280;52745;49.794;18.258;2022-08-21T08:59:54;98474.41;;;18.46;100.00
65157;BME280;52745;49.794;18.258;2022-08-21T09:02:22;98456.38;;;18.28;100.00
65157;BME280;52745;49.794;18.258;2022-08-21T09:04:54;98464.53;;;18.09;100.00
65157;BME280;52745;49.794;18.258;2022-08-21T09:07:53;98478.25;;;18.12;100.00
65157;BME280;52745;49.794;18.258;2022-08-21T09:26:04;98473.16;;;17.73;100.00
65157;BME280;52745;49.794;18.258;2022-08-21T09:28:26;98473.75;;;17.70;100.00
65157;BME280;52745;49.794;18.258;2022-08-21T09:30:55;98474.28;;;17.72;100.00
65157;BME280;52745;49.794;18.258;2022-08-21T09:33:22;98483.03;;;17.64;100.00
65157;BME280;52745;49.794;18.258;2022-08-21T09:35:54;98480.47;;;17.72;100.00
65157;BME280;52745;49.794;18.258;2022-08-21T09:41:05;98476.59;;;17.59;100.00
65157;BME280;52745;49.794;18.258;2022-08-21T09:43:32;98474.13;;;17.63;100.00
65157;BME280;52745;49.794;18.258;2022-08-21T09:46:10;98476.31;;;17.61;100.00
65157;BME280;52745;49.794;18.258;2022-08-21T09:48:46;98472.09;;;17.55;100.00
65157;BME280;52745;49.794;18.258;2022-08-21T09:51:36;98481.16;;;17.45;100.00
65157;BME280;52745;49.794;18.258;2022-08-21T09:59:39;98495.97;;;17.05;100.00
65157;BME280;52745;49.794;18.258;2022-08-21T10:02:35;98490.63;;;17.00;100.00
65157;BME280;52745;49.794;18.258;2022-08-21T10:07:42;98500.09;;;16.97;100.00
65157;BME280;52745;49.794;18.258;2022-08-21T10:10:19;98505.41;;;17.02;100.00
65157;BME280;52745;49.794;18.258;2022-08-21T10:18:15;98515.75;;;16.95;100.00
65157;BME280;52745;49.794;18.258;2022-08-21T10:21:23;98512.16;;;16.81;100.00
65157;BME280;52745;49.794;18.258;2022-08-21T10:24:09;98515.97;;;16.74;100.00
65157;BME280;52745;49.794;18.258;2022-08-21T10:27:31;98506.03;;;16.70;100.00
65157;BME280;52745;49.794;18.258;2022-08-21T10:33:03;98498.22;;;16.68;100.00
65157;BME280;52745;49.794;18.258;2022-08-21T10:39:06;98513.25;;;16.74;100.00
65157;BME280;52745;49.794;18.258;2022-08-21T10:42:00;98506.31;;;16.68;100.00
65157;BME280;52745;49.794;18.258;2022-08-21T10:47:05;98518.53;;;16.61;100.00
65157;BME280;52745;49.794;18.258;2022-08-21T10:57:39;98528.47;;;16.65;100.00
65157;BME280;52745;49.794;18.258;2022-08-21T11:00:14;98523.75;;;16.47;100.00
65157;BME280;52745;49.794;18.258;2022-08-21T11:02:52;98524.94;;;16.41;100.00
65157;BME280;52745;49.794;18.258;2022-08-21T11:05:31;98525.66;;;16.46;100.00
65157;BME280;52745;49.794;18.258;2022-08-21T11:13:36;98541.94;;;16.36;100.00
65157;BME280;52745;49.794;18.258;2022-08-21T11:19:09;98537.03;;;16.38;100.00
65157;BME280;52745;49.794;18.258;2022-08-21T11:21:56;98545.19;;;16.33;100.00
65157;BME280;52745;49.794;18.258;2022-08-21T11:24:38;98547.63;;;16.29;100.00
65157;BME280;52745;49.794;18.258;2022-08-21T11:27:26;98548.16;;;16.31;100.00
65157;BME280;52745;49.794;18.258;2022-08-21T11:29:58;98547.53;;;16.40;100.00
65157;BME280;52745;49.794;18.258;2022-08-21T11:35:03;98555.22;;;16.22;100.00
65157;BME280;52745;49.794;18.258;2022-08-21T11:51:37;98544.03;;;16.10;100.00
65157;BME280;52745;49.794;18.258;2022-08-21T11:56:42;98551.09;;;16.01;100.00
65157;BME280;52745;49.794;18.258;2022-08-21T11:59:20;98569.13;;;16.00;100.00
65157;BME280;52745;49.794;18.258;2022-08-21T12:01:51;98559.50;;;15.94;100.00
65157;BME280;52745;49.794;18.258;2022-08-21T12:04:25;98551.75;;;15.82;100.00
65157;BME280;52745;49.794;18.258;2022-08-21T12:06:52;98560.03;;;15.91;100.00
65157;BME280;52745;49.794;18.258;2022-08-21T12:09:32;98567.59;;;15.89;100.00
65157;BME280;52745;49.794;18.258;2022-08-21T12:12:24;98567.88;;;15.87;100.00
65157;BME280;52745;49.794;18.258;2022-08-21T12:15:13;98561.19;;;15.80;100.00
65157;BME280;52745;49.794;18.258;2022-08-21T12:17:51;98564.69;;;15.80;100.00
65157;BME280;52745;49.794;18.258;2022-08-21T12:23:03;98569.03;;;15.71;100.00
65157;BME280;52745;49.794;18.258;2022-08-21T12:25:42;98563.66;;;15.71;100.00
65157;BME280;52745;49.794;18.258;2022-08-21T12:28:11;98574.44;;;15.61;100.00
65157;BME280;52745;49.794;18.258;2022-08-21T12:30:44;98564.47;;;15.66;100.00
65157;BME280;52745;49.794;18.258;2022-08-21T12:36:12;98555.59;;;15.61;100.00
65157;BME280;52745;49.794;18.258;2022-08-21T12:38:45;98564.25;;;15.58;100.00
65157;BME280;52745;49.794;18.258;2022-08-21T12:41:33;98555.09;;;15.53;100.00
65157;BME280;52745;49.794;18.258;2022-08-21T12:44:14;98557.53;;;15.55;100.00
65157;BME280;52745;49.794;18.258;2022-08-21T12:46:51;98564.50;;;15.61;100.00
65157;BME280;52745;49.794;18.258;2022-08-21T12:49:37;98554.72;;;15.81;100.00
65157;BME280;52745;49.794;18.258;2022-08-21T12:52:20;98563.63;;;15.76;100.00
65157;BME280;52745;49.794;18.258;2022-08-21T12:54:47;98560.69;;;15.72;100.00
65157;BME280;52745;49.794;18.258;2022-08-21T12:57:24;98559.88;;;15.67;100.00
65157;BME280;52745;49.794;18.258;2022-08-21T13:00:03;98555.03;;;15.69;100.00
65157;BME280;52745;49.794;18.258;2022-08-21T13:02:36;98561.50;;;15.73;100.00
65157;BME280;52745;49.794;18.258;2022-08-21T13:05:07;98566.88;;;15.68;100.00
65157;BME280;52745;49.794;18.258;2022-08-21T13:07:38;98556.13;;;15.73;100.00
65157;BME280;52745;49.794;18.258;2022-08-21T13:10:09;98561.50;;;15.63;100.00
65157;BME280;52745;49.794;18.258;2022-08-21T13:12:41;98563.09;;;15.69;100.00
65157;BME280;52745;49.794;18.258;2022-08-21T13:15:08;98565.53;;;15.70;100.00
65157;BME280;52745;49.794;18.258;2022-08-21T13:17:46;98566.31;;;15.81;100.00
65157;BME280;52745;49.794;18.258;2022-08-21T13:20:26;98575.22;;;15.77;100.00
65157;BME280;52745;49.794;18.258;2022-08-21T13:22:53;98564.69;;;15.80;100.00
65157;BME280;52745;49.794;18.258;2022-08-21T13:25:26;98567.91;;;15.82;100.00
65157;BME280;52745;49.794;18.258;2022-08-21T13:30:24;98560.38;;;15.79;100.00
65157;BME280;52745;49.794;18.258;2022-08-21T13:32:55;98571.47;;;15.62;100.00
65157;BME280;52745;49.794;18.258;2022-08-21T13:35:35;98574.41;;;15.71;100.00
65157;BME280;52745;49.794;18.258;2022-08-21T13:38:04;98573.94;;;15.59;100.00
65157;BME280;52745;49.794;18.258;2022-08-21T13:40:38;98577.19;;;15.50;100.00
65157;BME280;52745;49.794;18.258;2022-08-21T13:43:12;98576.41;;;15.50;100.00
65157;BME280;52745;49.794;18.258;2022-08-21T13:45:43;98569.66;;;15.52;100.00
65157;BME280;52745;49.794;18.258;2022-08-21T13:48:10;98572.88;;;15.55;99.93
65157;BME280;52745;49.794;18.258;2022-08-21T13:50:38;98577.13;;;15.61;100.00
65157;BME280;52745;49.794;18.258;2022-08-21T13:55:53;98577.72;;;15.47;100.00
65157;BME280;52745;49.794;18.258;2022-08-21T13:58:30;98581.53;;;15.41;99.63
65157;BME280;52745;49.794;18.258;2022-08-21T14:00:59;98579.63;;;15.52;99.42
65157;BME280;52745;49.794;18.258;2022-08-21T14:03:42;98580.19;;;15.44;99.43
65157;BME280;52745;49.794;18.258;2022-08-21T14:06:12;98578.25;;;15.55;99.03
65157;BME280;52745;49.794;18.258;2022-08-21T14:08:42;98582.03;;;15.48;98.64
65157;BME280;52745;49.794;18.258;2022-08-21T14:11:13;98584.47;;;15.45;98.91
65157;BME280;52745;49.794;18.258;2022-08-21T14:13:45;98594.97;;;15.46;99.19
65157;BME280;52745;49.794;18.258;2022-08-21T14:16:23;98588.25;;;15.44;98.56
65157;BME280;52745;49.794;18.258;2022-08-21T14:21:33;98592.56;;;15.40;98.25
65157;BME280;52745;49.794;18.258;2022-08-21T14:24:39;98586.94;;;15.36;98.74
65157;BME280;52745;49.794;18.258;2022-08-21T14:27:03;98596.06;;;15.40;99.48
65157;BME280;52745;49.794;18.258;2022-08-21T14:29:38;98590.16;;;15.38;99.41